Aérodrome :
LOGIN :

S'inscrire | Disclaimer

   EN    FR    IT 

 










Légende :    VFR   VFR Marginal   IFR   IFR Intensif   IFR Très Intensif
Visi : 
Plafond : 
>= 8 km
>= 3000ft
5 à 8 km
1000 à 3000 ft
1500m à 5 km
500 à 1000 ft
800 à 1500m
200 à 500 ft
< 800m
< 200 ft
Symboles :   Orages  Brouillard  Fortes neiges  Fortes précipitations  Vent > 20 kt
SIGMETs :   Divers  Orages  Givrage  Turbulence  Onde Orograph.  Cendres Volcan.







- Altitude de l'aérodrome : 286 ft
- Code IATA : FFD


EGVA - RAF Fairford

DERNIER METAR :
  • 241547Z AUTO 00000KT 8000 -DZ FEW032 16/12 A3010 RMK AO2 RAB05E14DZB47 SLP196 $

METARs EXPIRÉS :
  • 241534Z AUTO 06003KT 5000 M FEW032 FEW140 16/12 A3010 RMK AO2 RAB05E14 SLP196 $
  • 241529Z AUTO 08003KT 3200 M FEW020 FEW140 16/12 A3010 RMK AO2 VIS 2600V6000 RAB05E14 SLP196 $
  • 241514Z AUTO 07004KT 9999 FEW020 SCT130 16/12 A3011 RMK AO2 RAB05E14 SLP200 $
  • 241505Z AUTO 08007KT 9999 -RA SCT020 BKN130 16/12 A3011 RMK AO2 RAB05 SLP200 $
  • 241406Z AUTO 07006KT 2400 M OVC015 15/11 A3012 RMK AO2 VIS 2400V8000 SLP203 $
  • 241356Z AUTO 05009KT 9000 M OVC015 15/11 A3012 RMK AO2 DZE1256RAB36E53 SLP203 P0000 T01490113 $
  • 241353Z AUTO 05008KT 9000 M OVC015 15/11 A3012 RMK AO2 DZE1256RAB36E53 CIG 014 RWY09 SLP203 $
  • 241341Z AUTO 06008KT 8000 -RA OVC014 15/11 A3012 RMK AO2 DZE1256RAB36 CIG 013 RWY09 SLP203 $
  • 241317Z AUTO 06005KT 6000 M OVC011 13/11 A3013 RMK AO2 DZE1256 SLP207 $
  • 241312Z AUTO 06007KT 4000 M OVC011 13/11 A3013 RMK AO2 VIS 3600V9000 DZE1256 SLP207 $
  • 241302Z AUTO 05006KT 8000 M OVC011 13/11 A3013 RMK AO2 DZE1256 SLP207 $
  • 241257Z AUTO 05008KT 3600 M OVC010 13/11 A3013 RMK AO2 VIS 3200V6000 DZE56 SLP207 $
  • 241247Z AUTO 08007KT 6000 -DZ OVC009 13/11 A3014 RMK AO2 DZB47 SLP210 $

Prévision TAF périmée.
Pas de NOTAMs connus pour ce terrain.



MET'MAP, la Météo Aéronautique d'un coup d'oeil ! - Copyright ORBIFLY Décembre 2007 - Disclaimer

ORBIFLY MET'MAP TEAM :

Programmation & Développement : Alexandra Zaïnal
Conception & Développement : Baudouin d'Aumeries
Co-Programmation & Développement : Marc-Olivier Méhu
Soutien technique & logistique : Manuel Goepfert

Contact : metmap@orbifly.com




SOURCES & CREDITS :

   NOAA